sensor_id;sensor_type;location;lat;lon;timestamp;P1;durP1;ratioP1;P2;durP2;ratioP2
4674;SDS011;2351;50.812;12.872;2022-09-09T00:01:52;1.87;;;1.03;;
4674;SDS011;2351;50.812;12.872;2022-09-09T00:04:31;1.63;;;0.77;;
4674;SDS011;2351;50.812;12.872;2022-09-09T00:07:05;1.23;;;1.10;;
4674;SDS011;2351;50.812;12.872;2022-09-09T00:09:43;2.20;;;1.20;;
4674;SDS011;2351;50.812;12.872;2022-09-09T00:12:21;3.97;;;0.97;;
4674;SDS011;2351;50.812;12.872;2022-09-09T00:14:59;1.20;;;1.10;;
4674;SDS011;2351;50.812;12.872;2022-09-09T00:17:35;3.10;;;1.00;;
4674;SDS011;2351;50.812;12.872;2022-09-09T00:20:12;1.87;;;1.10;;
4674;SDS011;2351;50.812;12.872;2022-09-09T00:22:49;7.83;;;1.03;;
4674;SDS011;2351;50.812;12.872;2022-09-09T00:25:29;1.53;;;1.43;;
4674;SDS011;2351;50.812;12.872;2022-09-09T00:28:10;2.93;;;1.33;;
4674;SDS011;2351;50.812;12.872;2022-09-09T00:30:48;11.70;;;1.10;;
4674;SDS011;2351;50.812;12.872;2022-09-09T00:33:22;2.13;;;1.57;;
4674;SDS011;2351;50.812;12.872;2022-09-09T00:35:57;2.40;;;0.90;;
4674;SDS011;2351;50.812;12.872;2022-09-09T00:38:31;9.33;;;1.77;;
4674;SDS011;2351;50.812;12.872;2022-09-09T00:41:07;1.30;;;1.20;;
4674;SDS011;2351;50.812;12.872;2022-09-09T00:43:46;3.90;;;1.73;;
4674;SDS011;2351;50.812;12.872;2022-09-09T00:49:35;3.53;;;1.60;;
4674;SDS011;2351;50.812;12.872;2022-09-09T00:52:20;2.23;;;1.77;;
4674;SDS011;2351;50.812;12.872;2022-09-09T00:55:00;1.53;;;1.40;;
4674;SDS011;2351;50.812;12.872;2022-09-09T00:57:37;2.20;;;1.60;;
4674;SDS011;2351;50.812;12.872;2022-09-09T01:00:18;2.00;;;1.80;;
4674;SDS011;2351;50.812;12.872;2022-09-09T01:02:53;3.37;;;2.10;;
4674;SDS011;2351;50.812;12.872;2022-09-09T01:05:33;3.13;;;2.00;;
4674;SDS011;2351;50.812;12.872;2022-09-09T01:08:11;4.70;;;2.27;;
4674;SDS011;2351;50.812;12.872;2022-09-09T01:10:50;2.80;;;2.00;;
4674;SDS011;2351;50.812;12.872;2022-09-09T01:13:24;7.00;;;2.80;;
4674;SDS011;2351;50.812;12.872;2022-09-09T01:16:01;5.23;;;2.57;;
4674;SDS011;2351;50.812;12.872;2022-09-09T01:18:35;9.97;;;2.97;;
4674;SDS011;2351;50.812;12.872;2022-09-09T01:21:14;7.17;;;2.70;;
4674;SDS011;2351;50.812;12.872;2022-09-09T01:24:00;6.23;;;2.10;;
4674;SDS011;2351;50.812;12.872;2022-09-09T01:26:51;9.53;;;3.07;;
4674;SDS011;2351;50.812;12.872;2022-09-09T01:29:25;3.70;;;2.80;;
4674;SDS011;2351;50.812;12.872;2022-09-09T01:31:58;2.77;;;2.17;;
4674;SDS011;2351;50.812;12.872;2022-09-09T01:34:31;4.77;;;2.30;;
4674;SDS011;2351;50.812;12.872;2022-09-09T01:37:07;2.47;;;1.40;;
4674;SDS011;2351;50.812;12.872;2022-09-09T01:39:40;2.73;;;1.50;;
4674;SDS011;2351;50.812;12.872;2022-09-09T01:42:16;1.43;;;1.33;;
4674;SDS011;2351;50.812;12.872;2022-09-09T01:44:49;4.47;;;1.93;;
4674;SDS011;2351;50.812;12.872;2022-09-09T01:47:20;2.80;;;1.43;;
4674;SDS011;2351;50.812;12.872;2022-09-09T01:49:52;4.90;;;1.87;;
4674;SDS011;2351;50.812;12.872;2022-09-09T01:52:23;1.77;;;1.67;;
4674;SDS011;2351;50.812;12.872;2022-09-09T01:54:55;2.00;;;1.63;;
4674;SDS011;2351;50.812;12.872;2022-09-09T01:57:30;1.47;;;1.37;;
4674;SDS011;2351;50.812;12.872;2022-09-09T02:00:08;3.10;;;1.73;;
4674;SDS011;2351;50.812;12.872;2022-09-09T02:02:44;3.17;;;1.50;;
4674;SDS011;2351;50.812;12.872;2022-09-09T02:05:28;2.50;;;1.20;;
4674;SDS011;2351;50.812;12.872;2022-09-09T02:08:07;4.37;;;1.33;;
4674;SDS011;2351;50.812;12.872;2022-09-09T02:10:45;2.90;;;2.03;;
4674;SDS011;2351;50.812;12.872;2022-09-09T02:13:23;3.07;;;1.57;;
4674;SDS011;2351;50.812;12.872;2022-09-09T02:15:57;3.90;;;1.83;;
4674;SDS011;2351;50.812;12.872;2022-09-09T02:18:35;3.67;;;2.17;;
4674;SDS011;2351;50.812;12.872;2022-09-09T02:21:11;7.50;;;2.20;;
4674;SDS011;2351;50.812;12.872;2022-09-09T02:23:46;4.67;;;2.60;;
4674;SDS011;2351;50.812;12.872;2022-09-09T02:26:22;6.33;;;2.47;;
4674;SDS011;2351;50.812;12.872;2022-09-09T02:28:56;4.70;;;2.37;;
4674;SDS011;2351;50.812;12.872;2022-09-09T02:31:30;5.73;;;2.73;;
4674;SDS011;2351;50.812;12.872;2022-09-09T02:34:06;9.10;;;2.97;;
4674;SDS011;2351;50.812;12.872;2022-09-09T02:36:41;4.13;;;2.57;;
4674;SDS011;2351;50.812;12.872;2022-09-09T02:39:15;4.70;;;2.37;;
4674;SDS011;2351;50.812;12.872;2022-09-09T02:41:47;5.80;;;2.70;;
4674;SDS011;2351;50.812;12.872;2022-09-09T02:44:20;5.30;;;2.27;;
4674;SDS011;2351;50.812;12.872;2022-09-09T02:47:00;4.57;;;2.90;;
4674;SDS011;2351;50.812;12.872;2022-09-09T02:49:43;8.27;;;2.73;;
4674;SDS011;2351;50.812;12.872;2022-09-09T02:52:25;6.97;;;2.60;;
4674;SDS011;2351;50.812;12.872;2022-09-09T02:55:04;6.43;;;2.73;;
4674;SDS011;2351;50.812;12.872;2022-09-09T02:57:42;3.17;;;2.40;;
4674;SDS011;2351;50.812;12.872;2022-09-09T03:00:23;3.37;;;2.07;;
4674;SDS011;2351;50.812;12.872;2022-09-09T03:02:55;5.40;;;2.77;;
4674;SDS011;2351;50.812;12.872;2022-09-09T03:05:27;12.30;;;3.50;;
4674;SDS011;2351;50.812;12.872;2022-09-09T03:07:59;3.00;;;2.03;;
4674;SDS011;2351;50.812;12.872;2022-09-09T03:10:30;5.73;;;2.67;;
4674;SDS011;2351;50.812;12.872;2022-09-09T03:13:02;1.87;;;1.40;;
4674;SDS011;2351;50.812;12.872;2022-09-09T03:15:36;3.23;;;2.03;;
4674;SDS011;2351;50.812;12.872;2022-09-09T03:18:08;2.60;;;2.07;;
4674;SDS011;2351;50.812;12.872;2022-09-09T03:20:39;4.60;;;2.50;;
4674;SDS011;2351;50.812;12.872;2022-09-09T03:23:12;5.27;;;2.00;;
4674;SDS011;2351;50.812;12.872;2022-09-09T03:25:46;9.50;;;2.10;;
4674;SDS011;2351;50.812;12.872;2022-09-09T03:28:18;1.63;;;1.53;;
4674;SDS011;2351;50.812;12.872;2022-09-09T03:30:52;3.33;;;1.47;;
4674;SDS011;2351;50.812;12.872;2022-09-09T03:33:28;5.87;;;1.37;;
4674;SDS011;2351;50.812;12.872;2022-09-09T03:36:01;2.83;;;1.90;;
4674;SDS011;2351;50.812;12.872;2022-09-09T03:38:32;1.90;;;1.53;;
4674;SDS011;2351;50.812;12.872;2022-09-09T03:41:04;2.87;;;1.60;;
4674;SDS011;2351;50.812;12.872;2022-09-09T03:43:37;5.33;;;2.20;;
4674;SDS011;2351;50.812;12.872;2022-09-09T03:46:10;2.00;;;1.70;;
4674;SDS011;2351;50.812;12.872;2022-09-09T03:48:42;3.07;;;1.70;;
4674;SDS011;2351;50.812;12.872;2022-09-09T03:51:14;6.03;;;1.63;;
4674;SDS011;2351;50.812;12.872;2022-09-09T03:53:45;2.63;;;1.00;;
4674;SDS011;2351;50.812;12.872;2022-09-09T03:56:17;2.00;;;1.27;;
4674;SDS011;2351;50.812;12.872;2022-09-09T03:58:51;4.03;;;1.20;;
4674;SDS011;2351;50.812;12.872;2022-09-09T04:01:24;6.20;;;1.37;;
4674;SDS011;2351;50.812;12.872;2022-09-09T04:03:55;4.20;;;1.43;;
4674;SDS011;2351;50.812;12.872;2022-09-09T04:06:28;4.17;;;1.30;;
4674;SDS011;2351;50.812;12.872;2022-09-09T04:09:00;1.13;;;1.10;;
4674;SDS011;2351;50.812;12.872;2022-09-09T04:11:32;2.30;;;1.43;;
4674;SDS011;2351;50.812;12.872;2022-09-09T04:14:04;3.33;;;1.50;;
4674;SDS011;2351;50.812;12.872;2022-09-09T04:16:37;1.10;;;1.00;;
4674;SDS011;2351;50.812;12.872;2022-09-09T04:19:08;2.80;;;1.47;;
4674;SDS011;2351;50.812;12.872;2022-09-09T04:21:42;8.43;;;1.83;;
4674;SDS011;2351;50.812;12.872;2022-09-09T04:24:14;4.03;;;1.43;;
4674;SDS011;2351;50.812;12.872;2022-09-09T04:26:46;5.83;;;1.50;;
4674;SDS011;2351;50.812;12.872;2022-09-09T04:29:18;2.30;;;1.30;;
4674;SDS011;2351;50.812;12.872;2022-09-09T04:31:52;1.73;;;1.13;;
4674;SDS011;2351;50.812;12.872;2022-09-09T04:34:24;2.50;;;1.43;;
4674;SDS011;2351;50.812;12.872;2022-09-09T04:36:56;1.67;;;1.50;;
4674;SDS011;2351;50.812;12.872;2022-09-09T04:39:27;4.87;;;1.40;;
4674;SDS011;2351;50.812;12.872;2022-09-09T04:41:59;1.70;;;1.20;;
4674;SDS011;2351;50.812;12.872;2022-09-09T04:44:30;1.97;;;1.37;;
4674;SDS011;2351;50.812;12.872;2022-09-09T04:47:03;2.37;;;1.50;;
4674;SDS011;2351;50.812;12.872;2022-09-09T04:49:35;5.03;;;1.60;;
4674;SDS011;2351;50.812;12.872;2022-09-09T04:52:08;6.37;;;1.43;;
4674;SDS011;2351;50.812;12.872;2022-09-09T04:54:39;6.70;;;1.70;;
4674;SDS011;2351;50.812;12.872;2022-09-09T04:57:11;1.20;;;1.03;;
4674;SDS011;2351;50.812;12.872;2022-09-09T04:59:43;1.47;;;1.20;;
4674;SDS011;2351;50.812;12.872;2022-09-09T05:02:16;2.13;;;1.70;;
4674;SDS011;2351;50.812;12.872;2022-09-09T05:04:47;0.93;;;0.93;;
4674;SDS011;2351;50.812;12.872;2022-09-09T05:07:19;1.93;;;1.37;;
4674;SDS011;2351;50.812;12.872;2022-09-09T05:09:51;8.00;;;1.73;;
4674;SDS011;2351;50.812;12.872;2022-09-09T05:12:22;2.53;;;1.50;;
4674;SDS011;2351;50.812;12.872;2022-09-09T05:14:55;2.00;;;1.40;;
4674;SDS011;2351;50.812;12.872;2022-09-09T05:17:28;3.37;;;1.50;;
4674;SDS011;2351;50.812;12.872;2022-09-09T05:19:59;6.87;;;1.70;;
4674;SDS011;2351;50.812;12.872;2022-09-09T05:22:32;1.53;;;1.30;;
4674;SDS011;2351;50.812;12.872;2022-09-09T05:25:04;3.07;;;1.67;;
4674;SDS011;2351;50.812;12.872;2022-09-09T05:27:36;2.03;;;1.60;;
4674;SDS011;2351;50.812;12.872;2022-09-09T05:30:09;5.03;;;1.37;;
4674;SDS011;2351;50.812;12.872;2022-09-09T05:32:42;10.77;;;2.13;;
4674;SDS011;2351;50.812;12.872;2022-09-09T05:35:13;1.30;;;1.20;;
4674;SDS011;2351;50.812;12.872;2022-09-09T05:37:45;16.80;;;1.63;;
4674;SDS011;2351;50.812;12.872;2022-09-09T05:40:17;2.20;;;1.30;;
4674;SDS011;2351;50.812;12.872;2022-09-09T05:42:49;2.40;;;1.20;;
4674;SDS011;2351;50.812;12.872;2022-09-09T05:45:21;3.83;;;1.33;;
4674;SDS011;2351;50.812;12.872;2022-09-09T05:47:54;3.17;;;1.40;;
4674;SDS011;2351;50.812;12.872;2022-09-09T05:50:25;3.07;;;1.37;;
4674;SDS011;2351;50.812;12.872;2022-09-09T05:52:57;4.00;;;1.30;;
4674;SDS011;2351;50.812;12.872;2022-09-09T05:55:29;2.23;;;1.80;;
4674;SDS011;2351;50.812;12.872;2022-09-09T05:58:01;3.53;;;1.47;;
4674;SDS011;2351;50.812;12.872;2022-09-09T06:00:32;1.83;;;1.40;;
4674;SDS011;2351;50.812;12.872;2022-09-09T06:03:05;4.70;;;1.53;;
4674;SDS011;2351;50.812;12.872;2022-09-09T06:05:37;2.70;;;1.60;;
4674;SDS011;2351;50.812;12.872;2022-09-09T06:08:08;3.10;;;2.10;;
4674;SDS011;2351;50.812;12.872;2022-09-09T06:10:40;1.50;;;1.33;;
4674;SDS011;2351;50.812;12.872;2022-09-09T06:13:11;2.77;;;1.93;;
4674;SDS011;2351;50.812;12.872;2022-09-09T06:15:48;2.40;;;1.53;;
4674;SDS011;2351;50.812;12.872;2022-09-09T06:18:22;1.93;;;1.73;;
4674;SDS011;2351;50.812;12.872;2022-09-09T06:20:54;2.33;;;1.83;;
4674;SDS011;2351;50.812;12.872;2022-09-09T06:23:27;15.00;;;2.37;;
4674;SDS011;2351;50.812;12.872;2022-09-09T06:26:03;1.50;;;1.17;;
4674;SDS011;2351;50.812;12.872;2022-09-09T06:28:36;1.40;;;1.30;;
4674;SDS011;2351;50.812;12.872;2022-09-09T06:31:09;7.80;;;1.63;;
4674;SDS011;2351;50.812;12.872;2022-09-09T06:33:43;4.30;;;1.47;;
4674;SDS011;2351;50.812;12.872;2022-09-09T06:36:16;4.10;;;1.70;;
4674;SDS011;2351;50.812;12.872;2022-09-09T06:38:49;3.63;;;1.60;;
4674;SDS011;2351;50.812;12.872;2022-09-09T06:41:21;3.23;;;2.07;;
4674;SDS011;2351;50.812;12.872;2022-09-09T06:43:55;3.47;;;2.00;;
4674;SDS011;2351;50.812;12.872;2022-09-09T06:46:27;3.07;;;2.23;;
4674;SDS011;2351;50.812;12.872;2022-09-09T06:49:02;7.20;;;2.80;;
4674;SDS011;2351;50.812;12.872;2022-09-09T06:51:34;8.20;;;2.50;;
4674;SDS011;2351;50.812;12.872;2022-09-09T06:54:07;4.00;;;1.67;;
4674;SDS011;2351;50.812;12.872;2022-09-09T06:56:39;7.10;;;2.77;;
4674;SDS011;2351;50.812;12.872;2022-09-09T06:59:13;2.90;;;1.97;;
4674;SDS011;2351;50.812;12.872;2022-09-09T07:01:44;3.30;;;1.87;;
4674;SDS011;2351;50.812;12.872;2022-09-09T07:04:18;2.93;;;2.07;;
4674;SDS011;2351;50.812;12.872;2022-09-09T07:06:49;8.00;;;2.93;;
4674;SDS011;2351;50.812;12.872;2022-09-09T07:09:22;2.07;;;1.50;;
4674;SDS011;2351;50.812;12.872;2022-09-09T07:11:53;4.40;;;2.03;;
4674;SDS011;2351;50.812;12.872;2022-09-09T07:14:27;3.50;;;1.77;;
4674;SDS011;2351;50.812;12.872;2022-09-09T07:16:58;7.53;;;2.40;;
4674;SDS011;2351;50.812;12.872;2022-09-09T07:19:31;2.97;;;1.67;;
4674;SDS011;2351;50.812;12.872;2022-09-09T07:22:04;4.27;;;1.80;;
4674;SDS011;2351;50.812;12.872;2022-09-09T07:24:36;2.30;;;2.10;;
4674;SDS011;2351;50.812;12.872;2022-09-09T07:27:07;1.53;;;1.43;;
4674;SDS011;2351;50.812;12.872;2022-09-09T07:29:39;2.37;;;1.70;;
4674;SDS011;2351;50.812;12.872;2022-09-09T07:32:11;2.83;;;1.90;;
4674;SDS011;2351;50.812;12.872;2022-09-09T07:34:43;4.80;;;1.93;;
4674;SDS011;2351;50.812;12.872;2022-09-09T07:37:16;8.57;;;2.70;;
4674;SDS011;2351;50.812;12.872;2022-09-09T07:39:47;2.67;;;2.00;;
4674;SDS011;2351;50.812;12.872;2022-09-09T07:42:21;2.70;;;1.67;;
4674;SDS011;2351;50.812;12.872;2022-09-09T07:44:52;5.53;;;2.03;;
4674;SDS011;2351;50.812;12.872;2022-09-09T07:47:25;6.87;;;2.40;;
4674;SDS011;2351;50.812;12.872;2022-09-09T07:49:57;6.33;;;2.60;;
4674;SDS011;2351;50.812;12.872;2022-09-09T07:52:29;3.50;;;1.67;;
4674;SDS011;2351;50.812;12.872;2022-09-09T07:55:01;5.30;;;2.00;;
4674;SDS011;2351;50.812;12.872;2022-09-09T07:57:34;6.80;;;2.10;;
4674;SDS011;2351;50.812;12.872;2022-09-09T08:00:06;5.93;;;2.83;;
4674;SDS011;2351;50.812;12.872;2022-09-09T08:02:40;13.10;;;2.10;;
4674;SDS011;2351;50.812;12.872;2022-09-09T08:05:13;6.27;;;3.17;;
4674;SDS011;2351;50.812;12.872;2022-09-09T08:07:45;4.90;;;2.60;;
4674;SDS011;2351;50.812;12.872;2022-09-09T08:10:17;6.23;;;2.40;;
4674;SDS011;2351;50.812;12.872;2022-09-09T08:12:48;8.93;;;1.63;;
4674;SDS011;2351;50.812;12.872;2022-09-09T08:15:20;6.97;;;1.17;;
4674;SDS011;2351;50.812;12.872;2022-09-09T08:17:51;4.83;;;1.70;;
4674;SDS011;2351;50.812;12.872;2022-09-09T08:20:24;3.70;;;1.40;;
4674;SDS011;2351;50.812;12.872;2022-09-09T08:22:56;2.13;;;1.20;;
4674;SDS011;2351;50.812;12.872;2022-09-09T08:25:28;3.23;;;1.60;;
4674;SDS011;2351;50.812;12.872;2022-09-09T08:28:00;8.40;;;1.60;;
4674;SDS011;2351;50.812;12.872;2022-09-09T08:30:31;5.70;;;1.30;;
4674;SDS011;2351;50.812;12.872;2022-09-09T08:33:03;1.30;;;1.20;;
4674;SDS011;2351;50.812;12.872;2022-09-09T08:35:36;1.67;;;1.43;;
4674;SDS011;2351;50.812;12.872;2022-09-09T08:38:08;3.20;;;1.27;;
4674;SDS011;2351;50.812;12.872;2022-09-09T08:40:40;14.60;;;1.70;;
4674;SDS011;2351;50.812;12.872;2022-09-09T08:43:18;4.53;;;1.93;;
4674;SDS011;2351;50.812;12.872;2022-09-09T08:45:55;2.03;;;1.40;;
4674;SDS011;2351;50.812;12.872;2022-09-09T08:48:41;2.83;;;1.40;;
4674;SDS011;2351;50.812;12.872;2022-09-09T08:51:23;9.10;;;1.37;;
4674;SDS011;2351;50.812;12.872;2022-09-09T08:53:58;2.87;;;1.27;;
4674;SDS011;2351;50.812;12.872;2022-09-09T08:56:33;1.73;;;1.20;;
4674;SDS011;2351;50.812;12.872;2022-09-09T08:59:05;3.40;;;1.40;;
4674;SDS011;2351;50.812;12.872;2022-09-09T09:01:44;3.50;;;1.50;;
4674;SDS011;2351;50.812;12.872;2022-09-09T09:04:28;2.30;;;1.17;;
4674;SDS011;2351;50.812;12.872;2022-09-09T09:07:10;2.87;;;0.93;;
4674;SDS011;2351;50.812;12.872;2022-09-09T09:09:55;4.67;;;1.30;;
4674;SDS011;2351;50.812;12.872;2022-09-09T09:12:33;2.83;;;0.77;;
4674;SDS011;2351;50.812;12.872;2022-09-09T09:15:11;7.33;;;1.30;;
4674;SDS011;2351;50.812;12.872;2022-09-09T09:17:48;3.03;;;1.30;;
4674;SDS011;2351;50.812;12.872;2022-09-09T09:20:21;1.60;;;1.10;;
4674;SDS011;2351;50.812;12.872;2022-09-09T09:23:02;1.10;;;1.00;;
4674;SDS011;2351;50.812;12.872;2022-09-09T09:25:37;2.37;;;1.00;;
4674;SDS011;2351;50.812;12.872;2022-09-09T09:28:13;2.50;;;1.13;;
4674;SDS011;2351;50.812;12.872;2022-09-09T09:30:49;3.33;;;1.10;;
4674;SDS011;2351;50.812;12.872;2022-09-09T09:33:26;4.43;;;1.30;;
4674;SDS011;2351;50.812;12.872;2022-09-09T09:36:03;2.10;;;0.77;;
4674;SDS011;2351;50.812;12.872;2022-09-09T09:38:37;3.07;;;0.97;;
4674;SDS011;2351;50.812;12.872;2022-09-09T09:41:09;2.43;;;1.30;;
4674;SDS011;2351;50.812;12.872;2022-09-09T09:43:41;1.63;;;1.47;;
4674;SDS011;2351;50.812;12.872;2022-09-09T09:46:18;2.93;;;1.27;;
4674;SDS011;2351;50.812;12.872;2022-09-09T09:48:56;3.37;;;1.23;;
4674;SDS011;2351;50.812;12.872;2022-09-09T09:51:29;1.67;;;1.40;;
4674;SDS011;2351;50.812;12.872;2022-09-09T09:54:08;2.23;;;1.80;;
4674;SDS011;2351;50.812;12.872;2022-09-09T09:56:46;2.17;;;0.90;;
4674;SDS011;2351;50.812;12.872;2022-09-09T09:59:21;3.40;;;1.23;;
4674;SDS011;2351;50.812;12.872;2022-09-09T10:01:54;2.70;;;1.40;;
4674;SDS011;2351;50.812;12.872;2022-09-09T10:04:25;2.83;;;1.30;;
4674;SDS011;2351;50.812;12.872;2022-09-09T10:06:57;4.67;;;2.03;;
4674;SDS011;2351;50.812;12.872;2022-09-09T10:09:30;1.80;;;0.70;;
4674;SDS011;2351;50.812;12.872;2022-09-09T10:12:04;0.90;;;0.57;;
4674;SDS011;2351;50.812;12.872;2022-09-09T10:14:45;0.80;;;0.80;;
4674;SDS011;2351;50.812;12.872;2022-09-09T10:17:25;1.60;;;1.50;;
4674;SDS011;2351;50.812;12.872;2022-09-09T10:20:17;2.30;;;0.60;;
4674;SDS011;2351;50.812;12.872;2022-09-09T10:23:02;0.50;;;0.40;;
4674;SDS011;2351;50.812;12.872;2022-09-09T10:25:53;2.20;;;0.50;;
4674;SDS011;2351;50.812;12.872;2022-09-09T10:28:57;0.50;;;0.40;;
4674;SDS011;2351;50.812;12.872;2022-09-09T10:31:43;2.43;;;0.63;;
4674;SDS011;2351;50.812;12.872;2022-09-09T10:34:32;2.63;;;0.90;;
4674;SDS011;2351;50.812;12.872;2022-09-09T10:37:31;0.73;;;0.70;;
4674;SDS011;2351;50.812;12.872;2022-09-09T10:40:25;0.53;;;0.53;;
4674;SDS011;2351;50.812;12.872;2022-09-09T10:43:09;1.00;;;0.80;;
4674;SDS011;2351;50.812;12.872;2022-09-09T10:45:49;1.67;;;0.60;;
4674;SDS011;2351;50.812;12.872;2022-09-09T10:48:31;0.60;;;0.40;;
4674;SDS011;2351;50.812;12.872;2022-09-09T10:51:12;1.43;;;0.80;;
4674;SDS011;2351;50.812;12.872;2022-09-09T10:53:58;7.27;;;0.83;;
4674;SDS011;2351;50.812;12.872;2022-09-09T10:56:43;2.70;;;0.60;;
4674;SDS011;2351;50.812;12.872;2022-09-09T10:59:20;0.63;;;0.57;;
4674;SDS011;2351;50.812;12.872;2022-09-09T11:01:57;2.10;;;0.70;;
4674;SDS011;2351;50.812;12.872;2022-09-09T11:04:34;0.70;;;0.63;;
4674;SDS011;2351;50.812;12.872;2022-09-09T11:07:13;4.53;;;0.83;;
4674;SDS011;2351;50.812;12.872;2022-09-09T11:09:53;2.87;;;0.73;;
4674;SDS011;2351;50.812;12.872;2022-09-09T11:12:37;3.30;;;0.87;;
4674;SDS011;2351;50.812;12.872;2022-09-09T11:15:16;1.77;;;0.80;;
4674;SDS011;2351;50.812;12.872;2022-09-09T11:17:54;5.20;;;0.80;;
4674;SDS011;2351;50.812;12.872;2022-09-09T11:20:29;1.37;;;0.80;;
4674;SDS011;2351;50.812;12.872;2022-09-09T11:23:02;7.67;;;1.40;;
4674;SDS011;2351;50.812;12.872;2022-09-09T11:25:41;3.47;;;1.17;;
4674;SDS011;2351;50.812;12.872;2022-09-09T11:28:25;1.37;;;0.70;;
4674;SDS011;2351;50.812;12.872;2022-09-09T11:31:08;4.73;;;0.97;;
4674;SDS011;2351;50.812;12.872;2022-09-09T11:33:54;2.07;;;0.83;;
4674;SDS011;2351;50.812;12.872;2022-09-09T11:36:38;4.30;;;0.87;;
4674;SDS011;2351;50.812;12.872;2022-09-09T11:42:29;0.60;;;0.60;;
4674;SDS011;2351;50.812;12.872;2022-09-09T11:45:08;2.77;;;0.90;;
4674;SDS011;2351;50.812;12.872;2022-09-09T11:47:55;1.70;;;0.70;;
4674;SDS011;2351;50.812;12.872;2022-09-09T11:50:29;1.67;;;0.90;;
4674;SDS011;2351;50.812;12.872;2022-09-09T11:53:04;1.23;;;0.43;;
4674;SDS011;2351;50.812;12.872;2022-09-09T11:55:59;2.73;;;0.83;;
4674;SDS011;2351;50.812;12.872;2022-09-09T11:58:40;1.93;;;0.90;;
4674;SDS011;2351;50.812;12.872;2022-09-09T12:01:16;3.50;;;1.03;;
4674;SDS011;2351;50.812;12.872;2022-09-09T12:07:04;3.80;;;1.17;;
4674;SDS011;2351;50.812;12.872;2022-09-09T12:09:57;1.10;;;1.00;;
4674;SDS011;2351;50.812;12.872;2022-09-09T12:12:33;0.70;;;0.70;;
4674;SDS011;2351;50.812;12.872;2022-09-09T12:15:18;1.07;;;0.70;;
4674;SDS011;2351;50.812;12.872;2022-09-09T12:17:54;4.40;;;1.33;;
4674;SDS011;2351;50.812;12.872;2022-09-09T12:20:30;4.23;;;0.90;;
4674;SDS011;2351;50.812;12.872;2022-09-09T12:23:09;1.60;;;0.67;;
4674;SDS011;2351;50.812;12.872;2022-09-09T12:25:53;0.97;;;0.87;;
4674;SDS011;2351;50.812;12.872;2022-09-09T12:28:40;1.93;;;0.70;;
4674;SDS011;2351;50.812;12.872;2022-09-09T12:31:17;2.40;;;0.77;;
4674;SDS011;2351;50.812;12.872;2022-09-09T12:34:02;15.17;;;2.10;;
4674;SDS011;2351;50.812;12.872;2022-09-09T12:36:42;1.03;;;0.40;;
4674;SDS011;2351;50.812;12.872;2022-09-09T12:39:17;1.63;;;0.60;;
4674;SDS011;2351;50.812;12.872;2022-09-09T12:41:54;0.77;;;0.50;;
4674;SDS011;2351;50.812;12.872;2022-09-09T12:44:26;3.00;;;0.60;;
4674;SDS011;2351;50.812;12.872;2022-09-09T12:46:59;3.80;;;0.70;;
4674;SDS011;2351;50.812;12.872;2022-09-09T12:49:34;0.67;;;0.50;;
4674;SDS011;2351;50.812;12.872;2022-09-09T12:52:12;1.53;;;0.77;;
4674;SDS011;2351;50.812;12.872;2022-09-09T12:54:48;0.60;;;0.60;;
4674;SDS011;2351;50.812;12.872;2022-09-09T12:57:22;2.00;;;0.40;;
4674;SDS011;2351;50.812;12.872;2022-09-09T13:00:04;0.83;;;0.50;;
4674;SDS011;2351;50.812;12.872;2022-09-09T13:02:45;1.70;;;0.60;;
4674;SDS011;2351;50.812;12.872;2022-09-09T13:05:19;1.23;;;0.50;;
4674;SDS011;2351;50.812;12.872;2022-09-09T13:08:02;4.50;;;0.60;;
4674;SDS011;2351;50.812;12.872;2022-09-09T13:10:36;1.13;;;0.50;;
4674;SDS011;2351;50.812;12.872;2022-09-09T13:13:13;1.60;;;0.67;;
4674;SDS011;2351;50.812;12.872;2022-09-09T13:15:48;0.80;;;0.60;;
4674;SDS011;2351;50.812;12.872;2022-09-09T13:18:23;0.80;;;0.60;;
4674;SDS011;2351;50.812;12.872;2022-09-09T13:20:56;2.40;;;0.60;;
4674;SDS011;2351;50.812;12.872;2022-09-09T13:23:30;1.20;;;0.53;;
4674;SDS011;2351;50.812;12.872;2022-09-09T13:26:05;2.40;;;0.63;;
4674;SDS011;2351;50.812;12.872;2022-09-09T13:28:51;6.50;;;0.50;;
4674;SDS011;2351;50.812;12.872;2022-09-09T13:31:27;1.07;;;0.60;;
4674;SDS011;2351;50.812;12.872;2022-09-09T13:34:10;1.57;;;0.70;;
4674;SDS011;2351;50.812;12.872;2022-09-09T13:36:46;19.07;;;0.70;;
4674;SDS011;2351;50.812;12.872;2022-09-09T13:39:21;2.93;;;0.73;;
4674;SDS011;2351;50.812;12.872;2022-09-09T13:41:53;2.10;;;0.43;;
4674;SDS011;2351;50.812;12.872;2022-09-09T13:44:25;2.50;;;0.47;;
4674;SDS011;2351;50.812;12.872;2022-09-09T13:47:00;6.00;;;0.60;;
4674;SDS011;2351;50.812;12.872;2022-09-09T13:49:34;3.57;;;0.47;;
4674;SDS011;2351;50.812;12.872;2022-09-09T13:52:09;2.83;;;0.97;;
4674;SDS011;2351;50.812;12.872;2022-09-09T13:54:46;2.57;;;0.90;;
4674;SDS011;2351;50.812;12.872;2022-09-09T13:57:20;2.23;;;0.67;;
4674;SDS011;2351;50.812;12.872;2022-09-09T13:59:53;2.20;;;0.60;;
4674;SDS011;2351;50.812;12.872;2022-09-09T14:02:26;1.83;;;0.50;;
4674;SDS011;2351;50.812;12.872;2022-09-09T14:04:57;1.13;;;0.60;;
4674;SDS011;2351;50.812;12.872;2022-09-09T14:07:29;1.17;;;0.70;;
4674;SDS011;2351;50.812;12.872;2022-09-09T14:10:02;4.30;;;1.03;;
4674;SDS011;2351;50.812;12.872;2022-09-09T14:12:34;0.70;;;0.60;;
4674;SDS011;2351;50.812;12.872;2022-09-09T14:15:07;1.17;;;0.57;;
4674;SDS011;2351;50.812;12.872;2022-09-09T14:17:41;3.23;;;0.70;;
4674;SDS011;2351;50.812;12.872;2022-09-09T14:20:13;2.30;;;0.80;;
4674;SDS011;2351;50.812;12.872;2022-09-09T14:22:53;1.50;;;0.80;;
4674;SDS011;2351;50.812;12.872;2022-09-09T14:25:47;1.30;;;1.20;;
4674;SDS011;2351;50.812;12.872;2022-09-09T14:28:19;1.23;;;0.80;;
4674;SDS011;2351;50.812;12.872;2022-09-09T14:30:52;1.60;;;0.90;;
4674;SDS011;2351;50.812;12.872;2022-09-09T14:33:35;0.50;;;0.40;;
4674;SDS011;2351;50.812;12.872;2022-09-09T14:36:06;2.03;;;0.63;;
4674;SDS011;2351;50.812;12.872;2022-09-09T14:38:38;1.60;;;0.60;;
4674;SDS011;2351;50.812;12.872;2022-09-09T14:41:13;1.10;;;0.70;;
4674;SDS011;2351;50.812;12.872;2022-09-09T14:43:46;0.50;;;0.40;;
4674;SDS011;2351;50.812;12.872;2022-09-09T14:46:19;4.27;;;0.70;;
4674;SDS011;2351;50.812;12.872;2022-09-09T14:48:51;2.20;;;1.53;;
4674;SDS011;2351;50.812;12.872;2022-09-09T14:51:24;1.53;;;0.80;;
4674;SDS011;2351;50.812;12.872;2022-09-09T14:53:57;0.63;;;0.30;;
4674;SDS011;2351;50.812;12.872;2022-09-09T14:56:33;0.50;;;0.40;;
4674;SDS011;2351;50.812;12.872;2022-09-09T14:59:05;7.10;;;0.60;;
4674;SDS011;2351;50.812;12.872;2022-09-09T15:01:37;1.47;;;0.40;;
4674;SDS011;2351;50.812;12.872;2022-09-09T15:04:10;8.43;;;1.03;;
4674;SDS011;2351;50.812;12.872;2022-09-09T15:06:44;1.67;;;0.60;;
4674;SDS011;2351;50.812;12.872;2022-09-09T15:09:18;1.07;;;0.70;;
4674;SDS011;2351;50.812;12.872;2022-09-09T15:11:51;0.87;;;0.60;;
4674;SDS011;2351;50.812;12.872;2022-09-09T15:14:22;0.50;;;0.50;;
4674;SDS011;2351;50.812;12.872;2022-09-09T15:16:56;3.43;;;0.53;;
4674;SDS011;2351;50.812;12.872;2022-09-09T15:19:27;0.87;;;0.60;;
4674;SDS011;2351;50.812;12.872;2022-09-09T15:21:59;1.10;;;0.50;;
4674;SDS011;2351;50.812;12.872;2022-09-09T15:24:30;1.23;;;0.50;;
4674;SDS011;2351;50.812;12.872;2022-09-09T15:27:03;1.70;;;1.60;;
4674;SDS011;2351;50.812;12.872;2022-09-09T15:29:35;0.60;;;0.43;;
4674;SDS011;2351;50.812;12.872;2022-09-09T15:32:08;0.67;;;0.67;;
4674;SDS011;2351;50.812;12.872;2022-09-09T15:34:39;0.83;;;0.50;;
4674;SDS011;2351;50.812;12.872;2022-09-09T15:37:11;1.40;;;0.70;;
4674;SDS011;2351;50.812;12.872;2022-09-09T15:39:43;2.30;;;0.50;;
4674;SDS011;2351;50.812;12.872;2022-09-09T15:42:16;1.40;;;0.50;;
4674;SDS011;2351;50.812;12.872;2022-09-09T15:44:48;1.03;;;0.70;;
4674;SDS011;2351;50.812;12.872;2022-09-09T15:47:27;1.87;;;0.40;;
4674;SDS011;2351;50.812;12.872;2022-09-09T15:50:01;7.07;;;0.80;;
4674;SDS011;2351;50.812;12.872;2022-09-09T15:52:33;1.00;;;0.60;;
4674;SDS011;2351;50.812;12.872;2022-09-09T15:55:05;2.10;;;0.97;;
4674;SDS011;2351;50.812;12.872;2022-09-09T15:57:39;0.70;;;0.50;;
4674;SDS011;2351;50.812;12.872;2022-09-09T16:00:12;1.33;;;0.80;;